createdAt,value
2023-05-10T00:00:44.121Z,100962.00
2023-05-10T00:03:11.242Z,100960.38
2023-05-10T00:05:37.829Z,100967.50
2023-05-10T00:08:04.342Z,100960.38
2023-05-10T00:10:30.882Z,100958.78
2023-05-10T00:12:57.432Z,100957.16
2023-05-10T00:15:23.870Z,100957.03
2023-05-10T00:17:51.844Z,100949.09
2023-05-10T00:20:18.558Z,100951.53
2023-05-10T00:22:45.304Z,100957.03
2023-05-10T00:25:11.793Z,100949.09
2023-05-10T00:27:38.705Z,100942.81
2023-05-10T00:30:05.794Z,100951.38
2023-05-10T00:32:32.432Z,100953.00
2023-05-10T00:35:00.139Z,100948.78
2023-05-10T00:37:28.656Z,100953.00
2023-05-10T00:39:55.351Z,100949.09
2023-05-10T00:42:22.177Z,100953.00
2023-05-10T00:44:49.012Z,100957.22
2023-05-10T00:47:16.892Z,100948.16
2023-05-10T00:49:44.200Z,100943.38
2023-05-10T00:52:13.675Z,100948.88
2023-05-10T00:54:40.294Z,100947.25
2023-05-10T00:57:06.841Z,100948.72
2023-05-10T00:59:33.496Z,100954.22
2023-05-10T01:02:00.005Z,100950.66
2023-05-10T01:04:26.888Z,100955.03
2023-05-10T01:06:54.689Z,100954.22
2023-05-10T01:09:22.903Z,100952.63
2023-05-10T01:11:50.302Z,100952.63
2023-05-10T01:14:20.738Z,100947.59
2023-05-10T01:16:49.472Z,100954.22
2023-05-10T01:19:26.993Z,100958.25
2023-05-10T01:22:19.778Z,100951.13
2023-05-10T01:25:02.795Z,100952.28
2023-05-10T01:28:04.521Z,100955.03
2023-05-10T01:30:58.985Z,100953.41
2023-05-10T01:33:48.682Z,100956.03
2023-05-10T01:36:36.635Z,100943.09
2023-05-10T01:39:17.006Z,100951.66
2023-05-10T01:41:53.941Z,100964.75
2023-05-10T01:44:40.990Z,100957.63
2023-05-10T01:47:18.460Z,100954.09
2023-05-10T01:49:51.270Z,100954.88
2023-05-10T01:52:20.773Z,100956.16
2023-05-10T01:55:12.446Z,100953.09
2023-05-10T01:57:41.580Z,100951.13
2023-05-10T02:00:09.694Z,100951.13
2023-05-10T02:02:47.339Z,100946.78
2023-05-10T02:05:16.221Z,100955.69
2023-05-10T02:07:43.542Z,100958.44
2023-05-10T02:10:11.604Z,100965.88
2023-05-10T02:12:42.594Z,100961.19
2023-05-10T02:15:11.385Z,100965.09
2023-05-10T02:17:40.057Z,100965.09
2023-05-10T02:20:09.507Z,100962.81
2023-05-10T02:22:37.693Z,100969.09
2023-05-10T02:25:05.242Z,100969.09
2023-05-10T02:27:32.409Z,100969.09
2023-05-10T02:29:59.517Z,100971.38
2023-05-10T02:32:28.701Z,100974.81
2023-05-10T02:34:57.993Z,100979.81
2023-05-10T02:37:26.309Z,100979.81
2023-05-10T02:39:55.944Z,100981.78
2023-05-10T02:42:30.131Z,100979.69
2023-05-10T02:45:02.273Z,100983.91
2023-05-10T02:47:30.029Z,100989.53
2023-05-10T02:49:56.603Z,100989.22
2023-05-10T02:52:27.364Z,100986.47
2023-05-10T02:54:57.897Z,100982.09
2023-05-10T02:57:32.724Z,100986.78
2023-05-10T03:00:01.137Z,100992.16
2023-05-10T03:02:28.000Z,100986.38
2023-05-10T03:04:54.512Z,100994.78
2023-05-10T03:07:22.323Z,100994.19
2023-05-10T03:09:51.604Z,100996.94
2023-05-10T03:12:33.563Z,101001.66
2023-05-10T03:15:32.245Z,100998.41
2023-05-10T03:18:10.416Z,100998.28
2023-05-10T03:20:42.320Z,101002.97
2023-05-10T03:23:14.628Z,101002.97
2023-05-10T03:25:42.125Z,101003.28
2023-05-10T03:28:09.684Z,101005.88
2023-05-10T03:30:36.704Z,101004.75
2023-05-10T03:33:10.114Z,101011.53
2023-05-10T03:35:40.345Z,101004.09
2023-05-10T03:38:06.954Z,101014.75
2023-05-10T03:40:33.514Z,101009.13
2023-05-10T03:43:00.479Z,101008.63
2023-05-10T03:45:27.711Z,101003.47
2023-05-10T03:47:54.945Z,101004.28
2023-05-10T03:50:21.995Z,100999.59
2023-05-10T03:52:48.765Z,101001.19
2023-05-10T03:55:15.269Z,101004.75
2023-05-10T03:57:41.717Z,101001.19
2023-05-10T04:00:09.166Z,101008.31
2023-05-10T04:02:41.848Z,101011.38
2023-05-10T04:05:11.857Z,101016.56
2023-05-10T04:07:38.413Z,101005.41
2023-05-10T04:10:05.326Z,101010.44
2023-05-10T04:12:31.865Z,101015.13
2023-05-10T04:14:58.504Z,101015.13
2023-05-10T04:17:25.000Z,101030.47
2023-05-10T04:19:53.987Z,101018.34
2023-05-10T04:22:20.441Z,101016.06
2023-05-10T04:24:46.937Z,101015.28
2023-05-10T04:27:13.699Z,101014.47
2023-05-10T04:29:40.244Z,101013.00
2023-05-10T04:32:06.724Z,101009.44
2023-05-10T04:34:35.033Z,101018.81
2023-05-10T04:37:01.601Z,101014.47
2023-05-10T04:39:28.106Z,101015.75
2023-05-10T04:41:54.564Z,101013.81
2023-05-10T04:44:21.159Z,101016.06
2023-05-10T04:46:47.614Z,101013.81
2023-05-10T04:49:15.259Z,101027.06
2023-05-10T04:51:41.712Z,101025.59
2023-05-10T04:54:08.153Z,101024.94
2023-05-10T04:56:34.822Z,101029.63
2023-05-10T04:59:01.374Z,101037.22
2023-05-10T05:01:28.080Z,101037.69
2023-05-10T05:03:54.931Z,101031.41
2023-05-10T05:06:25.854Z,101038.19
2023-05-10T05:08:52.463Z,101030.84
2023-05-10T05:11:18.949Z,101037.97
2023-05-10T05:13:45.363Z,101051.38
2023-05-10T05:16:14.564Z,101046.56
2023-05-10T05:18:41.069Z,101042.00
2023-05-10T05:21:18.035Z,101051.53
2023-05-10T05:23:44.917Z,101043.59
2023-05-10T05:26:11.643Z,101053.13
2023-05-10T05:28:38.761Z,101067.22
2023-05-10T05:31:06.597Z,101063.31
2023-05-10T05:33:33.207Z,101064.13
2023-05-10T05:36:05.460Z,101066.41
2023-05-10T05:38:32.390Z,101074.00
2023-05-10T05:40:58.971Z,101063.31
2023-05-10T05:43:25.710Z,101065.28
2023-05-10T05:45:54.836Z,101059.78
2023-05-10T05:48:22.026Z,101067.22
2023-05-10T05:50:48.481Z,101073.19
2023-05-10T05:53:15.093Z,101080.31
2023-05-10T05:55:41.597Z,101074.00
2023-05-10T05:58:09.083Z,101083.38
2023-05-10T06:00:35.745Z,101085.66
2023-05-10T06:03:02.341Z,101083.56
2023-05-10T06:05:30.976Z,101087.00
2023-05-10T06:07:57.422Z,101093.94
2023-05-10T06:10:23.977Z,101098.63
2023-05-10T06:12:51.812Z,101098.31
2023-05-10T06:15:18.488Z,101098.63
2023-05-10T06:17:45.276Z,101095.09
2023-05-10T06:20:12.576Z,101108.50
2023-05-10T06:22:39.368Z,101106.56
2023-05-10T06:25:06.287Z,101104.13
2023-05-10T06:27:32.746Z,101105.28
2023-05-10T06:30:11.923Z,101103.66
2023-05-10T06:32:39.751Z,101107.38
2023-05-10T06:35:06.863Z,101103.47
2023-05-10T06:37:33.401Z,101104.28
2023-05-10T06:39:59.906Z,101109.78
2023-05-10T06:42:26.528Z,101109.09
2023-05-10T06:44:52.996Z,101116.03
2023-05-10T06:47:19.770Z,101116.84
2023-05-10T06:49:46.255Z,101123.44
2023-05-10T06:52:13.154Z,101121.81
2023-05-10T06:54:39.642Z,101122.47
2023-05-10T06:57:16.065Z,101131.22
2023-05-10T06:59:50.487Z,101132.53
2023-05-10T07:02:17.473Z,101126.22
2023-05-10T07:04:44.230Z,101126.22
2023-05-10T07:07:10.755Z,101127.66
2023-05-10T07:09:37.312Z,101140.28
2023-05-10T07:12:03.971Z,101142.53
2023-05-10T07:14:30.371Z,101141.91
2023-05-10T07:16:56.877Z,101150.97
2023-05-10T07:19:23.377Z,101143.69
2023-05-10T07:21:49.886Z,101144.16
2023-05-10T07:24:16.336Z,101143.31
2023-05-10T07:26:42.842Z,101148.50
2023-05-10T07:29:09.389Z,101149.31
2023-05-10T07:31:35.975Z,101152.72
2023-05-10T07:34:02.457Z,101167.25
2023-05-10T07:36:28.936Z,101166.59
2023-05-10T07:38:58.519Z,101168.38
2023-05-10T07:41:24.975Z,101172.53
2023-05-10T07:43:51.431Z,101172.50
2023-05-10T07:46:17.998Z,101173.47
2023-05-10T07:48:44.536Z,101173.09
2023-05-10T07:51:11.717Z,101173.03
2023-05-10T07:53:38.810Z,101172.84
2023-05-10T07:56:27.519Z,101178.78
2023-05-10T07:58:55.266Z,101177.66
2023-05-10T08:01:21.783Z,101177.31
2023-05-10T08:03:48.613Z,101172.13
2023-05-10T08:06:16.451Z,101188.50
2023-05-10T08:08:43.153Z,101194.81
2023-05-10T08:11:09.615Z,101195.81
2023-05-10T08:13:36.011Z,101196.94
2023-05-10T08:16:02.763Z,101193.72
2023-05-10T08:18:29.324Z,101199.06
2023-05-10T08:20:56.166Z,101198.75
2023-05-10T08:23:22.660Z,101205.88
2023-05-10T08:25:49.446Z,101201.97
2023-05-10T08:28:16.100Z,101205.25
2023-05-10T08:30:42.532Z,101205.06
2023-05-10T08:33:08.961Z,101209.38
2023-05-10T08:35:35.852Z,101210.16
2023-05-10T08:38:02.507Z,101214.66
2023-05-10T08:40:29.163Z,101220.28
2023-05-10T08:43:10.489Z,101218.81
2023-05-10T08:45:41.839Z,101222.53
2023-05-10T08:48:10.440Z,101237.09
2023-05-10T08:50:38.321Z,101234.97
2023-05-10T08:53:11.564Z,101229.97
2023-05-10T08:55:39.660Z,101244.34
2023-05-10T08:58:06.866Z,101236.44
2023-05-10T09:00:34.229Z,101239.03
2023-05-10T09:03:01.821Z,101245.47
2023-05-10T09:05:28.578Z,101239.59
2023-05-10T09:07:55.059Z,101244.50
2023-05-10T09:10:21.869Z,101238.59
2023-05-10T09:12:49.677Z,101240.91
2023-05-10T09:15:16.946Z,101232.50
2023-05-10T09:17:45.304Z,101230.97
2023-05-10T09:20:11.928Z,101240.06
2023-05-10T09:22:39.308Z,101239.78
2023-05-10T09:25:07.163Z,101241.97
2023-05-10T09:27:34.708Z,101240.81
2023-05-10T09:30:01.680Z,101244.03
2023-05-10T09:32:48.652Z,101246.78
2023-05-10T09:35:17.309Z,101248.81
2023-05-10T09:37:47.154Z,101253.63
2023-05-10T09:40:16.310Z,101252.16
2023-05-10T09:43:07.030Z,101259.16
2023-05-10T09:45:37.166Z,101260.53
2023-05-10T09:48:05.718Z,101261.41
2023-05-10T09:50:32.316Z,101266.13
2023-05-10T09:53:01.365Z,101264.19
2023-05-10T09:55:39.753Z,101265.91
2023-05-10T09:58:10.928Z,101278.13
2023-05-10T10:00:45.031Z,101278.25
2023-05-10T10:03:17.293Z,101271.25
2023-05-10T10:05:44.993Z,101285.78
2023-05-10T10:08:12.975Z,101281.28
2023-05-10T10:10:42.807Z,101279.66
2023-05-10T10:13:09.525Z,101285.13
2023-05-10T10:16:04.896Z,101286.59
2023-05-10T10:18:31.955Z,101295.44
2023-05-10T10:20:59.499Z,101290.72
2023-05-10T10:23:26.404Z,101294.78
2023-05-10T10:25:56.252Z,101294.84
2023-05-10T10:28:40.461Z,101295.78
2023-05-10T10:31:29.440Z,101295.88
2023-05-10T10:34:08.422Z,101299.22
2023-05-10T10:36:55.912Z,101295.66
2023-05-10T10:39:22.524Z,101305.47
2023-05-10T10:41:54.238Z,101300.63
2023-05-10T10:44:23.879Z,101299.59
2023-05-10T10:47:35.196Z,101304.19
2023-05-10T10:50:01.921Z,101300.03
2023-05-10T10:52:36.345Z,101299.59
2023-05-10T10:55:25.839Z,101301.53
2023-05-10T10:58:05.070Z,101299.25
2023-05-10T11:00:38.132Z,101305.34
2023-05-10T11:03:09.084Z,101302.81
2023-05-10T11:05:36.651Z,101299.69
2023-05-10T11:08:28.857Z,101302.69
2023-05-10T11:11:01.325Z,101306.13
2023-05-10T11:13:30.953Z,101304.34
2023-05-10T11:15:58.442Z,101309.94
2023-05-10T11:18:30.448Z,101307.53
2023-05-10T11:21:03.655Z,101307.31
2023-05-10T11:23:48.937Z,101304.66
2023-05-10T11:26:16.983Z,101315.13
2023-05-10T11:28:48.171Z,101313.44
2023-05-10T11:31:16.076Z,101310.28
2023-05-10T11:33:53.470Z,101305.28
2023-05-10T11:36:22.873Z,101301.63
2023-05-10T11:38:49.657Z,101301.50
2023-05-10T11:41:18.471Z,101303.94
2023-05-10T11:43:47.703Z,101299.69
2023-05-10T11:46:14.781Z,101298.22
2023-05-10T11:48:42.433Z,101312.31
2023-05-10T11:51:10.397Z,101314.13
2023-05-10T11:53:36.922Z,101307.78
2023-05-10T11:56:07.696Z,101301.97
2023-05-10T11:58:35.162Z,101311.13
2023-05-10T12:01:01.859Z,101311.22
2023-05-10T12:03:29.188Z,101319.88
2023-05-10T12:05:57.157Z,101321.56
2023-05-10T12:08:26.073Z,101323.75
2023-05-10T12:11:04.256Z,101321.56
2023-05-10T12:13:30.716Z,101317.03
2023-05-10T12:16:01.521Z,101316.41
2023-05-10T12:18:27.976Z,101322.03
2023-05-10T12:20:54.824Z,101315.59
2023-05-10T12:23:21.744Z,101317.03
2023-05-10T12:25:48.183Z,101322.66
2023-05-10T12:28:14.658Z,101319.81
2023-05-10T12:30:41.143Z,101324.81
2023-05-10T12:33:16.205Z,101318.38
2023-05-10T12:35:47.719Z,101314.97
2023-05-10T12:38:35.604Z,101315.13
2023-05-10T12:41:05.206Z,101318.38
2023-05-10T12:43:32.475Z,101317.56
2023-05-10T12:45:59.772Z,101315.25
2023-05-10T12:48:26.199Z,101315.69
2023-05-10T12:50:52.711Z,101313.63
2023-05-10T12:53:19.088Z,101316.56
2023-05-10T12:55:45.665Z,101328.53
2023-05-10T12:58:17.912Z,101324.72
2023-05-10T13:00:54.820Z,101326.97
2023-05-10T13:03:21.294Z,101334.88
2023-05-10T13:05:47.753Z,101331.47
2023-05-10T13:08:14.241Z,101334.97
2023-05-10T13:10:41.207Z,101339.09
2023-05-10T13:13:09.229Z,101339.91
2023-05-10T13:15:35.945Z,101343.31
2023-05-10T13:18:02.695Z,101348.75
2023-05-10T13:20:29.241Z,101353.84
2023-05-10T13:22:55.639Z,101360.56
2023-05-10T13:25:22.083Z,101364.81
2023-05-10T13:27:48.502Z,101361.53
2023-05-10T13:30:15.192Z,101367.53
2023-05-10T13:32:41.816Z,101369.13
2023-05-10T13:35:09.007Z,101374.56
2023-05-10T13:37:38.188Z,101389.28
2023-05-10T13:40:05.592Z,101386.41
2023-05-10T13:42:34.558Z,101390.75
2023-05-10T13:45:02.633Z,101395.44
2023-05-10T13:47:29.366Z,101393.78
2023-05-10T13:49:56.210Z,101389.16
2023-05-10T13:52:22.673Z,101395.81
2023-05-10T13:54:51.689Z,101389.38
2023-05-10T13:57:18.155Z,101389.81
2023-05-10T13:59:44.614Z,101387.03
2023-05-10T14:02:13.699Z,101396.00
2023-05-10T14:04:40.323Z,101387.91
2023-05-10T14:07:06.802Z,101392.47
2023-05-10T14:09:33.253Z,101392.66
2023-05-10T14:11:59.733Z,101383.72
2023-05-10T14:14:26.295Z,101386.94
2023-05-10T14:16:52.905Z,101391.97
2023-05-10T14:19:19.376Z,101389.66
2023-05-10T14:21:45.867Z,101391.53
2023-05-10T14:24:15.480Z,101395.78
2023-05-10T14:26:41.907Z,101398.06
2023-05-10T14:29:09.947Z,101408.25
2023-05-10T14:31:38.017Z,101400.16
2023-05-10T14:34:04.438Z,101394.19
2023-05-10T14:36:30.849Z,101395.78
2023-05-10T14:38:57.250Z,101396.94
2023-05-10T14:41:24.043Z,101397.53
2023-05-10T14:43:51.679Z,101397.53
2023-05-10T14:46:18.568Z,101393.38
2023-05-10T14:48:45.010Z,101396.72
2023-05-10T14:51:11.955Z,101390.88
2023-05-10T14:53:39.489Z,101394.19
2023-05-10T14:56:06.284Z,101391.44
2023-05-10T14:58:34.147Z,101395.47
2023-05-10T15:01:01.132Z,101394.00
2023-05-10T15:03:28.190Z,101397.00
2023-05-10T15:05:56.946Z,101388.25
2023-05-10T15:08:24.535Z,101394.72
2023-05-10T15:10:51.571Z,101391.38
2023-05-10T15:13:18.124Z,101391.03
2023-05-10T15:15:44.576Z,101391.50
2023-05-10T15:18:11.693Z,101393.38
2023-05-10T15:20:38.230Z,101392.94
2023-05-10T15:23:04.730Z,101392.47
2023-05-10T15:25:31.202Z,101391.00
2023-05-10T15:27:57.595Z,101392.50
2023-05-10T15:30:24.044Z,101392.97
2023-05-10T15:32:50.872Z,101387.44
2023-05-10T15:35:17.935Z,101392.75
2023-05-10T15:37:44.544Z,101393.31
2023-05-10T15:40:11.417Z,101398.97
2023-05-10T15:42:37.874Z,101403.56
2023-05-10T15:45:04.912Z,101397.81
2023-05-10T15:47:31.721Z,101398.06
2023-05-10T15:50:00.393Z,101395.41
2023-05-10T15:52:27.227Z,101399.69
2023-05-10T15:54:53.749Z,101409.94
2023-05-10T15:57:20.173Z,101411.66
2023-05-10T15:59:46.690Z,101408.44
2023-05-10T16:02:13.788Z,101406.13
2023-05-10T16:04:40.338Z,101417.19
2023-05-10T16:07:07.020Z,101409.25
2023-05-10T16:09:33.465Z,101421.56
2023-05-10T16:11:59.956Z,101422.94
2023-05-10T16:14:26.540Z,101425.97
2023-05-10T16:16:53.088Z,101422.75
2023-05-10T16:19:19.682Z,101421.09
2023-05-10T16:21:47.265Z,101424.78
2023-05-10T16:24:13.756Z,101419.38
2023-05-10T16:26:41.106Z,101423.22
2023-05-10T16:29:08.624Z,101431.50
2023-05-10T16:31:35.468Z,101429.16
2023-05-10T16:34:02.255Z,101432.66
2023-05-10T16:36:29.612Z,101428.59
2023-05-10T16:38:56.480Z,101431.69
2023-05-10T16:41:22.976Z,101431.69
2023-05-10T16:43:51.133Z,101434.13
2023-05-10T16:46:17.590Z,101431.50
2023-05-10T16:48:44.137Z,101431.72
2023-05-10T16:51:10.656Z,101423.41
2023-05-10T16:53:37.777Z,101432.97
2023-05-10T16:56:04.426Z,101421.91
2023-05-10T16:58:30.919Z,101434.34
2023-05-10T17:00:57.314Z,101442.31
2023-05-10T17:03:23.833Z,101434.25
2023-05-10T17:05:51.666Z,101429.09
2023-05-10T17:08:18.059Z,101432.41
2023-05-10T17:10:44.476Z,101428.94
2023-05-10T17:13:10.941Z,101428.13
2023-05-10T17:15:40.049Z,101434.69
2023-05-10T17:18:07.514Z,101441.47
2023-05-10T17:20:34.360Z,101436.84
2023-05-10T17:23:02.608Z,101436.63
2023-05-10T17:25:29.346Z,101447.44
2023-05-10T17:27:55.770Z,101451.50
2023-05-10T17:30:26.250Z,101451.50
2023-05-10T17:32:54.135Z,101450.69
2023-05-10T17:35:21.319Z,101452.63
2023-05-10T17:37:47.921Z,101464.28
2023-05-10T17:40:14.649Z,101460.25
2023-05-10T17:42:41.812Z,101461.59
2023-05-10T17:45:08.954Z,101458.38
2023-05-10T17:47:35.647Z,101468.84
2023-05-10T17:50:02.269Z,101475.41
2023-05-10T17:52:31.364Z,101472.06
2023-05-10T17:54:59.681Z,101479.22
2023-05-10T17:57:26.278Z,101475.16
2023-05-10T17:59:55.280Z,101479.91
2023-05-10T18:02:21.884Z,101479.44
2023-05-10T18:04:49.753Z,101483.00
2023-05-10T18:07:16.496Z,101484.28
2023-05-10T18:09:42.950Z,101483.00
2023-05-10T18:12:09.380Z,101486.91
2023-05-10T18:14:41.017Z,101492.63
2023-05-10T18:17:09.048Z,101482.13
2023-05-10T18:19:35.727Z,101487.28
2023-05-10T18:22:04.125Z,101491.28
2023-05-10T18:27:03.313Z,101490.94
2023-05-10T18:29:29.812Z,101487.25
2023-05-10T18:31:56.376Z,101486.22
2023-05-10T18:34:22.882Z,101486.69
2023-05-10T18:36:49.450Z,101487.16
2023-05-10T18:39:17.938Z,101493.03
2023-05-10T18:41:45.704Z,101486.56
2023-05-10T18:44:14.982Z,101490.00
2023-05-10T18:46:42.564Z,101492.50
2023-05-10T18:49:09.290Z,101499.97
2023-05-10T18:51:36.022Z,101505.97
2023-05-10T18:54:02.599Z,101502.59
2023-05-10T18:56:29.118Z,101503.06
2023-05-10T18:58:55.755Z,101505.56
2023-05-10T19:01:22.486Z,101503.38
2023-05-10T19:03:48.951Z,101506.66
2023-05-10T19:06:16.509Z,101514.47
2023-05-10T19:08:43.164Z,101513.66
2023-05-10T19:11:09.658Z,101510.28
2023-05-10T19:13:38.558Z,101511.09
2023-05-10T19:16:20.214Z,101505.53
2023-05-10T19:18:47.064Z,101510.09
2023-05-10T19:21:13.725Z,101520.50
2023-05-10T19:23:41.948Z,101517.75
2023-05-10T19:26:10.538Z,101521.66
2023-05-10T19:28:38.501Z,101518.28
2023-05-10T19:31:06.048Z,101525.41
2023-05-10T19:33:36.216Z,101520.03
2023-05-10T19:36:04.282Z,101527.97
2023-05-10T19:38:34.410Z,101531.88
2023-05-10T19:41:01.126Z,101538.06
2023-05-10T19:43:28.598Z,101539.66
2023-05-10T19:46:00.014Z,101539.66
2023-05-10T19:48:27.690Z,101539.66
2023-05-10T19:50:54.724Z,101547.47
2023-05-10T19:53:21.381Z,101544.41
2023-05-10T19:55:48.350Z,101539.56
2023-05-10T19:58:14.804Z,101547.03
2023-05-10T20:00:41.262Z,101544.16
2023-05-10T20:03:09.464Z,101547.09
2023-05-10T20:05:36.080Z,101552.78
2023-05-10T20:08:02.881Z,101550.34
2023-05-10T20:10:29.544Z,101553.44
2023-05-10T20:12:56.156Z,101544.69
2023-05-10T20:15:24.291Z,101546.16
2023-05-10T20:17:53.120Z,101558.16
2023-05-10T20:20:20.627Z,101550.56
2023-05-10T20:22:48.321Z,101558.00
2023-05-10T20:25:16.562Z,101556.06
2023-05-10T20:27:43.438Z,101558.66
2023-05-10T20:30:10.446Z,101562.22
2023-05-10T20:32:38.636Z,101558.16
2023-05-10T20:35:06.181Z,101559.31
2023-05-10T20:37:32.958Z,101554.59
2023-05-10T20:40:00.801Z,101560.91
2023-05-10T20:42:27.352Z,101559.44
2023-05-10T20:44:53.804Z,101561.41
2023-05-10T20:47:20.438Z,101563.69
2023-05-10T20:49:46.862Z,101558.16
2023-05-10T20:52:14.476Z,101562.53
2023-05-10T20:54:40.869Z,101564.16
2023-05-10T20:57:07.572Z,101560.91
2023-05-10T20:59:34.231Z,101572.44
2023-05-10T21:02:01.052Z,101562.22
2023-05-10T21:04:27.828Z,101567.72
2023-05-10T21:06:55.624Z,101564.16
2023-05-10T21:09:22.514Z,101569.19
2023-05-10T21:11:50.179Z,101563.19
2023-05-10T21:14:16.752Z,101554.44
2023-05-10T21:16:43.587Z,101556.06
2023-05-10T21:19:10.244Z,101564.34
2023-05-10T21:21:36.769Z,101559.16
2023-05-10T21:24:03.448Z,101566.47
2023-05-10T21:26:29.964Z,101567.94
2023-05-10T21:28:56.596Z,101566.00
2023-05-10T21:31:23.113Z,101560.81
2023-05-10T21:33:49.540Z,101561.16
2023-05-10T21:36:16.240Z,101553.19
2023-05-10T21:38:44.434Z,101556.63
2023-05-10T21:41:11.311Z,101555.00
2023-05-10T21:43:37.861Z,101551.09
2023-05-10T21:46:04.668Z,101551.75
2023-05-10T21:48:32.542Z,101551.94
2023-05-10T21:50:59.391Z,101555.00
2023-05-10T21:53:25.873Z,101557.59
2023-05-10T21:55:52.447Z,101554.84
2023-05-10T21:58:18.930Z,101548.84
2023-05-10T22:00:45.971Z,101552.75
2023-05-10T22:03:13.622Z,101555.34
2023-05-10T22:05:40.312Z,101555.66
2023-05-10T22:08:07.580Z,101553.59
2023-05-10T22:10:34.098Z,101558.94
2023-05-10T22:13:00.730Z,101563.97
2023-05-10T22:15:27.260Z,101558.78
2023-05-10T22:17:54.833Z,101570.63
2023-05-10T22:20:21.373Z,101572.88
2023-05-10T22:22:47.809Z,101580.81
2023-05-10T22:25:14.462Z,101573.69
2023-05-10T22:27:40.972Z,101569.97
2023-05-10T22:30:08.152Z,101570.41
2023-05-10T22:32:34.729Z,101572.03
2023-05-10T22:35:01.291Z,101571.56
2023-05-10T22:37:27.803Z,101577.53
2023-05-10T22:39:54.240Z,101575.91
2023-05-10T22:42:22.136Z,101576.41
2023-05-10T22:44:48.627Z,101572.03
2023-05-10T22:47:16.349Z,101577.88
2023-05-10T22:49:42.797Z,101574.31
2023-05-10T22:52:09.752Z,101573.66
2023-05-10T22:54:36.384Z,101575.13
2023-05-10T22:57:03.144Z,101575.91
2023-05-10T22:59:29.650Z,101578.19
2023-05-10T23:01:56.190Z,101572.22
2023-05-10T23:04:22.724Z,101580.97
2023-05-10T23:06:49.445Z,101579.34
2023-05-10T23:09:16.375Z,101581.59
2023-05-10T23:11:43.104Z,101580.94
2023-05-10T23:14:09.597Z,101583.72
2023-05-10T23:16:36.137Z,101586.78
2023-05-10T23:19:02.728Z,101585.97
2023-05-10T23:21:31.303Z,101588.72
2023-05-10T23:23:58.596Z,101586.28
2023-05-10T23:26:25.137Z,101586.13
2023-05-10T23:28:51.651Z,101599.25
2023-05-10T23:31:18.401Z,101590.66
2023-05-10T23:33:44.886Z,101593.75
2023-05-10T23:36:11.530Z,101602.81
2023-05-10T23:38:38.268Z,101595.69
2023-05-10T23:41:04.742Z,101590.31
2023-05-10T23:43:31.564Z,101595.66
2023-05-10T23:45:58.568Z,101593.41
2023-05-10T23:48:25.156Z,101592.25
2023-05-10T23:50:51.785Z,101589.38
2023-05-10T23:53:18.334Z,101582.72
2023-05-10T23:55:45.354Z,101594.56
2023-05-10T23:58:12.517Z,101590.66
